Time;durP1;ratioP1;P1;durP2;ratioP2;P2;SDS_P1;SDS_P2;PMS_P1;PMS_P2;Temp;Humidity;BMP_temperature;BMP_pressure;BME280_temperature;BME280_humidity;BME280_pressure;Samples;Min_cycle;Max_cycle;Signal;HPM_P1;HPM_P2
2022/06/20 00:00:27;;;;;;;;;;;;;;;22.89;48.27;101387.16;7283083;19;154051;-58
2022/06/20 00:02:55;;;;;;;;;;;;;;;22.91;48.45;101395.28;7285406;19;154917;-57
2022/06/20 00:05:25;;;;;;;;;;;;;;;22.91;48.60;101389.66;7287034;19;151721;-58
2022/06/20 00:07:52;;;;;;;;;;;;;;;22.89;48.48;101391.97;7283370;19;152636;-58
2022/06/20 00:10:20;;;;;;;;;;;;;;;22.91;48.57;101384.84;7285741;19;154108;-57
2022/06/20 00:12:47;;;;;;;;;;;;;;;22.89;48.51;101392.81;7286109;19;152070;-58
2022/06/20 00:15:20;;;;;;;;;;;;;;;22.88;48.73;101402.41;7284373;19;153513;-58
2022/06/20 00:17:48;;;;;;;;;;;;;;;22.89;48.77;101404.09;7285255;19;153434;-56
2022/06/20 00:20:50;;;;;;;;;;;;;;;22.88;49.03;101416.50;7293713;19;152053;-58
2022/06/20 00:23:18;;;;;;;;;;;;;;;22.88;48.81;101407.19;7284691;19;154404;-55
2022/06/20 00:25:44;;;;;;;;;;;;;;;22.89;48.81;101392.81;7284416;19;152333;-57
2022/06/20 00:28:12;;;;;;;;;;;;;;;22.93;48.77;101384.56;7284540;19;152975;-57
2022/06/20 00:30:46;;;;;;;;;;;;;;;22.91;48.75;101386.84;7285070;19;153670;-55
2022/06/20 00:33:13;;;;;;;;;;;;;;;22.92;48.78;101385.69;7286702;19;152109;-58
2022/06/20 00:35:40;;;;;;;;;;;;;;;22.95;48.52;101396.31;7286671;19;152704;-57
2022/06/20 00:38:13;;;;;;;;;;;;;;;22.93;48.84;101390.19;7283359;19;153630;-57
2022/06/20 00:40:43;;;;;;;;;;;;;;;22.93;48.82;101393.84;7285926;19;152248;-57
2022/06/20 00:43:12;;;;;;;;;;;;;;;22.92;48.80;101408.25;7291420;19;153067;-57
2022/06/20 00:45:40;;;;;;;;;;;;;;;22.89;48.99;101423.81;7284368;19;151716;-55
2022/06/20 00:48:10;;;;;;;;;;;;;;;22.88;49.18;101432.56;7281693;19;152577;-57
2022/06/20 00:50:40;;;;;;;;;;;;;;;22.87;48.89;101425.25;7282183;19;153575;-57
2022/06/20 00:53:07;;;;;;;;;;;;;;;;;;7285851;19;152083;-57
2022/06/20 00:55:34;;;;;;;;;;;;;;;22.89;49.15;101420.16;7284930;19;180408;-57
2022/06/20 00:58:05;;;;;;;;;;;;;;;22.91;48.96;101415.84;7282851;19;153313;-57
2022/06/20 01:00:35;;;;;;;;;;;;;;;22.90;48.82;101419.81;7282854;19;151560;-56
2022/06/20 01:03:13;;;;;;;;;;;;;;;22.89;49.36;101422.97;7286384;19;152648;-57
2022/06/20 01:05:55;;;;;;;;;;;;;;;22.88;49.25;101415.66;7290221;19;152354;-56
2022/06/20 01:08:21;;;;;;;;;;;;;;;22.87;48.97;101406.38;7282178;19;153343;-57
2022/06/20 01:10:51;;;;;;;;;;;;;;;22.86;48.97;101415.13;7283682;19;153508;-55
2022/06/20 01:13:19;;;;;;;;;;;;;;;22.90;49.12;101411.38;7283653;19;152139;-57
2022/06/20 01:15:47;;;;;;;;;;;;;;;22.91;49.30;101418.69;7285667;19;153641;-56
2022/06/20 01:18:20;;;;;;;;;;;;;;;22.91;49.30;101409.38;7283008;19;154133;-56
2022/06/20 01:20:48;;;;;;;;;;;;;;;22.91;48.99;101417.84;7284508;19;151832;-58
2022/06/20 01:23:33;;;;;;;;;;;;;;;22.91;49.20;101415.03;7284694;19;153558;-58
2022/06/20 01:26:00;;;;;;;;;;;;;;;22.89;49.40;101434.25;7284071;19;153253;-57
2022/06/20 01:28:29;;;;;;;;;;;;;;;22.92;49.28;101437.25;7289655;19;151793;-57
2022/06/20 01:30:57;;;;;;;;;;;;;;;22.91;49.31;101446.84;7279991;19;153266;-55
2022/06/20 01:33:23;;;;;;;;;;;;;;;22.89;49.32;101448.31;7283956;19;152290;-57
2022/06/20 01:38:37;;;;;;;;;;;;;;;22.92;49.31;101467.41;7283522;19;154997;-57
2022/06/20 01:43:50;;;;;;;;;;;;;;;22.95;49.38;101466.78;7287207;19;152659;-55
2022/06/20 01:46:17;;;;;;;;;;;;;;;22.96;49.38;101471.28;7289211;19;153287;-57
2022/06/20 01:48:45;;;;;;;;;;;;;;;22.93;49.27;101480.38;7296104;19;152104;-57
2022/06/20 01:51:16;;;;;;;;;;;;;;;22.95;49.45;101490.16;7287407;19;152388;-57
2022/06/20 01:53:43;;;;;;;;;;;;;;;22.97;49.03;101487.88;7287984;19;151803;-57
2022/06/20 01:56:10;;;;;;;;;;;;;;;22.97;48.95;101482.25;7289862;19;152589;-55
2022/06/20 01:58:40;;;;;;;;;;;;;;;22.98;49.48;101488.72;7287238;19;153375;-56
2022/06/20 02:01:07;;;;;;;;;;;;;;;22.94;49.14;101505.41;7288556;19;152922;-57
2022/06/20 02:03:37;;;;;;;;;;;;;;;22.98;49.09;101519.72;7290649;19;152546;-56
2022/06/20 02:06:04;;;;;;;;;;;;;;;22.99;49.11;101518.56;7288714;19;153888;-58
2022/06/20 02:08:31;;;;;;;;;;;;;;;23.03;49.04;101508.34;7289693;19;153225;-57
2022/06/20 02:11:06;;;;;;;;;;;;;;;23.00;49.14;101514.59;7295797;19;153988;-56
2022/06/20 02:13:34;;;;;;;;;;;;;;;23.00;48.81;101514.59;7289397;19;151555;-58
2022/06/20 02:16:03;;;;;;;;;;;;;;;23.00;48.62;101514.59;7290848;19;153365;-57
2022/06/20 02:18:31;;;;;;;;;;;;;;;22.99;48.78;101518.56;7289398;19;153809;-58
2022/06/20 02:21:00;;;;;;;;;;;;;;;22.95;49.24;101523.16;7289294;19;151879;-57
2022/06/20 02:23:29;;;;;;;;;;;;;;;22.96;49.03;101522.84;7285074;19;152815;-56
2022/06/20 02:25:56;;;;;;;;;;;;;;;22.98;48.97;101528.19;7288957;19;153234;-58
2022/06/20 02:28:29;;;;;;;;;;;;;;;22.95;48.96;101538.06;7289169;19;151936;-57
2022/06/20 02:30:56;;;;;;;;;;;;;;;22.96;49.12;101536.94;7286253;19;152571;-56
2022/06/20 02:33:25;;;;;;;;;;;;;;;22.93;49.16;101534.75;7294134;19;154425;-56
2022/06/20 02:35:53;;;;;;;;;;;;;;;22.96;48.82;101544.56;7288488;19;153762;-57
2022/06/20 02:38:20;;;;;;;;;;;;;;;22.95;49.04;101535.25;7288493;19;153984;-59
2022/06/20 02:40:48;;;;;;;;;;;;;;;22.95;49.14;101540.06;7288736;19;151755;-58
2022/06/20 02:43:17;;;;;;;;;;;;;;;22.94;49.19;101533.59;7288313;19;154437;-58
2022/06/20 02:45:45;;;;;;;;;;;;;;;22.94;48.89;101539.22;7287153;19;154174;-57
2022/06/20 02:48:13;;;;;;;;;;;;;;;22.95;49.28;101542.88;7286879;19;153192;-57
2022/06/20 02:50:51;;;;;;;;;;;;;;;22.95;49.06;101531.59;7290098;19;153547;-56
2022/06/20 02:53:34;;;;;;;;;;;;;;;22.97;49.16;101529.31;7288068;19;154893;-58
2022/06/20 02:56:03;;;;;;;;;;;;;;;22.91;49.09;101539.84;7294100;19;152487;-57
2022/06/20 02:58:31;;;;;;;;;;;;;;;22.88;49.66;101536.81;7287510;19;154477;-58
2022/06/20 03:01:11;;;;;;;;;;;;;;;22.91;49.56;101530.56;7287034;19;151946;-57
2022/06/20 03:03:40;;;;;;;;;;;;;;;22.91;49.50;101527.75;7287433;19;152572;-58
2022/06/20 03:06:14;;;;;;;;;;;;;;;22.89;49.54;101530.06;7283185;19;152956;-59
2022/06/20 03:08:41;;;;;;;;;;;;;;;22.89;49.46;101532.88;7286910;19;151778;-59
2022/06/20 03:11:09;;;;;;;;;;;;;;;22.89;49.28;101530.06;7287557;19;153289;-57
2022/06/20 03:13:37;;;;;;;;;;;;;;;22.90;49.33;101523.25;7287638;19;154015;-58
2022/06/20 03:16:05;;;;;;;;;;;;;;;22.90;49.59;101518.44;7288925;19;152470;-58
2022/06/20 03:18:35;;;;;;;;;;;;;;;22.90;49.37;101518.44;7294935;19;155178;-56
2022/06/20 03:21:01;;;;;;;;;;;;;;;22.92;49.20;101512.50;7287974;19;152612;-57
2022/06/20 03:23:30;;;;;;;;;;;;;;;22.88;49.61;101517.94;7285880;19;152941;-58
2022/06/20 03:25:58;;;;;;;;;;;;;;;22.91;49.31;101522.94;7286823;19;153605;-56
2022/06/20 03:28:25;;;;;;;;;;;;;;;22.88;49.31;101520.75;7286704;19;152323;-56
2022/06/20 03:31:01;;;;;;;;;;;;;;;22.88;49.31;101525.56;7284829;19;153230;-58
2022/06/20 03:33:29;;;;;;;;;;;;;;;22.88;49.75;101532.03;7283558;19;154335;-57
2022/06/20 03:36:10;;;;;;;;;;;;;;;22.88;49.96;101529.22;7287899;19;152282;-56
2022/06/20 03:38:38;;;;;;;;;;;;;;;22.87;49.93;101540.78;7288050;19;153026;-57
2022/06/20 03:41:06;;;;;;;;;;;;;;;22.88;49.74;101536.81;7292927;19;154692;-57
2022/06/20 03:43:34;;;;;;;;;;;;;;;22.87;49.83;101532.31;7285538;19;153342;-57
2022/06/20 03:46:19;;;;;;;;;;;;;;;22.91;49.64;101553.94;7284488;19;153340;-58
2022/06/20 03:48:56;;;;;;;;;;;;;;;22.89;49.42;101564.69;7284968;19;152131;-56
2022/06/20 03:51:27;;;;;;;;;;;;;;;22.86;49.79;101570.09;7288026;19;153358;-57
2022/06/20 03:54:00;;;;;;;;;;;;;;;22.90;49.80;101582.41;7285587;19;154038;-59
2022/06/20 03:56:30;;;;;;;;;;;;;;;22.89;49.82;101583.59;7286590;19;151820;-58
2022/06/20 03:58:57;;;;;;;;;;;;;;;22.89;50.01;101575.97;7287511;19;154686;-57
2022/06/20 04:01:28;;;;;;;;;;;;;;;22.88;49.65;101579.94;7292422;19;153874;-55
2022/06/20 04:04:03;;;;;;;;;;;;;;;22.91;49.64;101578.47;7286772;19;153177;-58
2022/06/20 04:06:43;;;;;;;;;;;;;;;22.89;49.71;101578.78;7284044;19;154377;-57
2022/06/20 04:12:06;;;;;;;;;;;;;;;22.85;50.04;101576.91;7286850;19;152629;-57
2022/06/20 04:14:38;;;;;;;;;;;;;;;22.85;50.12;101577.72;7285353;19;154101;-57
2022/06/20 04:19:58;;;;;;;;;;;;;;;22.86;49.75;101581.38;7285914;19;152429;-57
2022/06/20 04:22:41;;;;;;;;;;;;;;;22.88;49.82;101579.09;7285530;19;152401;-56
2022/06/20 04:25:22;;;;;;;;;;;;;;;22.90;50.00;101582.41;7293448;19;151676;-58
2022/06/20 04:27:54;;;;;;;;;;;;;;;22.88;49.50;101576.28;7284912;19;152915;-58
2022/06/20 04:30:20;;;;;;;;;;;;;;;22.90;49.64;101568.31;7283822;19;152825;-57
2022/06/20 04:32:51;;;;;;;;;;;;;;;22.89;49.57;101583.59;7286184;19;153830;-56
2022/06/20 04:35:21;;;;;;;;;;;;;;;22.86;49.93;101578.53;7283263;19;153964;-56
2022/06/20 04:37:52;;;;;;;;;;;;;;;22.88;49.68;101582.75;7285489;19;151887;-58
2022/06/20 04:40:32;;;;;;;;;;;;;;;22.86;49.45;101578.53;7284986;19;152498;-58
2022/06/20 04:43:02;;;;;;;;;;;;;;;22.88;49.73;101584.72;7282626;19;153405;-57
2022/06/20 04:45:39;;;;;;;;;;;;;;;22.88;49.62;101582.75;7284816;19;152040;-57
2022/06/20 04:48:06;;;;;;;;;;;;;;;22.87;49.92;101594.31;7291857;19;152782;-55
2022/06/20 04:50:34;;;;;;;;;;;;;;;22.86;49.45;101598.28;7280901;19;152166;-57
2022/06/20 04:53:05;;;;;;;;;;;;;;;22.89;49.44;101592.03;7285273;19;152693;-57
2022/06/20 04:55:33;;;;;;;;;;;;;;;22.83;49.91;101604.53;7284509;19;153757;-58
2022/06/20 04:58:04;;;;;;;;;;;;;;;22.83;49.80;101604.53;7285348;19;151878;-55
2022/06/20 05:00:42;;;;;;;;;;;;;;;22.83;49.41;101602.56;7283108;19;152773;-58
2022/06/20 05:03:12;;;;;;;;;;;;;;;22.85;49.80;101616.34;7283047;19;155597;-58
2022/06/20 05:05:40;;;;;;;;;;;;;;;22.86;49.63;101609.53;7285525;19;151648;-57
2022/06/20 05:08:11;;;;;;;;;;;;;;;22.83;49.73;101621.44;7286236;19;152660;-58
2022/06/20 05:11:04;;;;;;;;;;;;;;;22.83;49.26;101622.28;7289353;19;153507;-57
2022/06/20 05:13:44;;;;;;;;;;;;;;;22.81;49.70;101618.09;7285920;19;152748;-56
2022/06/20 05:16:17;;;;;;;;;;;;;;;22.82;49.60;101622.59;7281612;19;153938;-57
2022/06/20 05:18:46;;;;;;;;;;;;;;;22.83;49.44;101621.44;7281230;19;153382;-58
2022/06/20 05:21:15;;;;;;;;;;;;;;;22.82;49.54;101622.59;7285228;19;152556;-57
2022/06/20 05:23:45;;;;;;;;;;;;;;;22.80;49.37;101622.06;7282864;19;153365;-56
2022/06/20 05:26:26;;;;;;;;;;;;;;;22.79;49.69;101631.66;7282553;19;152141;-57
2022/06/20 05:28:55;;;;;;;;;;;;;;;22.84;49.42;101632.41;7284198;19;152703;-59
2022/06/20 05:31:49;;;;;;;;;;;;;;;22.82;49.57;101629.06;7281310;19;153889;-59
2022/06/20 05:34:18;;;;;;;;;;;;;;;22.80;49.30;101630.53;7289647;19;152864;-56
2022/06/20 05:36:54;;;;;;;;;;;;;;;22.79;49.52;101635.31;7282826;19;153234;-59
2022/06/20 05:39:31;;;;;;;;;;;;;;;22.79;49.37;101637.28;7284273;19;151823;-59
2022/06/20 05:41:58;;;;;;;;;;;;;;;22.77;49.69;101633.94;7282635;19;153137;-59
2022/06/20 05:44:25;;;;;;;;;;;;;;;22.80;49.64;101633.34;7282765;19;154300;-57
2022/06/20 05:46:56;;;;;;;;;;;;;;;22.77;49.71;101625.47;7283004;19;152238;-57
2022/06/20 05:49:28;;;;;;;;;;;;;;;22.77;49.74;101633.94;7281917;19;153667;-57
2022/06/20 05:51:56;;;;;;;;;;;;;;;22.77;49.71;101629.13;7282658;19;153368;-55
2022/06/20 05:54:25;;;;;;;;;;;;;;;22.76;49.62;101635.91;7283242;19;151911;-56
2022/06/20 05:56:55;;;;;;;;;;;;;;;22.76;49.40;101635.91;7289602;19;153448;-57
2022/06/20 05:59:27;;;;;;;;;;;;;;;22.75;49.64;101634.25;7281937;19;152023;-58
2022/06/20 06:01:58;;;;;;;;;;;;;;;22.76;49.61;101635.09;7283467;19;153942;-58
2022/06/20 06:04:36;;;;;;;;;;;;;;;22.76;49.63;101640.75;7281511;19;153755;-58
2022/06/20 06:07:07;;;;;;;;;;;;;;;22.76;49.69;101641.53;7283249;19;151977;-58
2022/06/20 06:09:55;;;;;;;;;;;;;;;22.72;49.95;101646.13;7282410;19;153406;-59
2022/06/20 06:12:25;;;;;;;;;;;;;;;22.70;49.71;101647.59;7282176;19;153362;-57
2022/06/20 06:14:56;;;;;;;;;;;;;;;22.71;49.75;101643.63;7281208;19;151918;-56
2022/06/20 06:17:28;;;;;;;;;;;;;;;22.71;50.15;101643.63;7289481;19;152640;-57
2022/06/20 06:20:17;;;;;;;;;;;;;;;22.69;49.67;101652.34;7282474;19;151738;-58
2022/06/20 06:22:45;;;;;;;;;;;;;;;22.65;50.22;101648.47;7282648;19;152239;-56
2022/06/20 06:25:28;;;;;;;;;;;;;;;22.67;49.90;101642.53;7280458;19;154344;-59
2022/06/20 06:28:02;;;;;;;;;;;;;;;22.70;49.38;101648.44;7282872;19;152125;-59
2022/06/20 06:30:34;;;;;;;;;;;;;;;22.72;49.55;101645.28;7285314;19;153475;-57
2022/06/20 06:33:25;;;;;;;;;;;;;;;22.70;49.01;101653.22;7287768;19;153400;-58
2022/06/20 06:35:58;;;;;;;;;;;;;;;22.71;49.23;101652.09;7288151;19;152041;-56
2022/06/20 06:38:28;;;;;;;;;;;;;;;22.71;48.77;101655.75;7290102;19;152461;-59
2022/06/20 06:40:56;;;;;;;;;;;;;;;22.75;48.77;101655.97;7293918;19;153235;-59
2022/06/20 06:43:26;;;;;;;;;;;;;;;22.72;48.95;101662.19;7289524;19;152538;-58
2022/06/20 06:45:56;;;;;;;;;;;;;;;22.69;48.79;101663.63;7285364;19;154058;-56
2022/06/20 06:48:27;;;;;;;;;;;;;;;22.53;44.87;101657.38;7288741;19;152087;-56
2022/06/20 06:50:56;;;;;;;;;;;;;;;22.42;43.66;101653.03;7283852;19;152613;-57
2022/06/20 06:53:38;;;;;;;;;;;;;;;22.15;43.09;101647.25;7285290;19;153870;-55
2022/06/20 06:56:09;;;;;;;;;;;;;;;22.10;45.06;101644.50;7288542;19;152514;-58
2022/06/20 06:58:43;;;;;;;;;;;;;;;22.05;45.92;101648.22;7287733;19;152853;-56
2022/06/20 07:01:26;;;;;;;;;;;;;;;22.04;46.25;101649.34;7285663;19;153614;-54
2022/06/20 07:03:56;;;;;;;;;;;;;;;22.05;46.64;101653.00;7296157;19;151902;-58
2022/06/20 07:06:40;;;;;;;;;;;;;;;22.07;46.56;101647.94;7286455;19;154945;-56
2022/06/20 07:09:13;;;;;;;;;;;;;;;22.08;46.82;101653.22;7287945;19;151479;-56
2022/06/20 07:11:47;;;;;;;;;;;;;;;22.10;46.87;101655.75;7289008;19;152311;-56
2022/06/20 07:14:22;;;;;;;;;;;;;;;22.07;46.75;101656.38;7286698;19;152073;-55
2022/06/20 07:16:57;;;;;;;;;;;;;;;22.12;46.82;101659.94;7287402;19;152082;-57
2022/06/20 07:19:24;;;;;;;;;;;;;;;22.18;46.21;101660.69;7286482;19;152602;-55
2022/06/20 07:21:51;;;;;;;;;;;;;;;22.13;46.49;101658.78;7287220;19;154112;-55
2022/06/20 07:24:21;;;;;;;;;;;;;;;22.16;46.73;101663.00;7287470;19;151643;-56
2022/06/20 07:26:50;;;;;;;;;;;;;;;22.15;47.06;101659.34;7293797;19;153158;-58
2022/06/20 07:29:23;;;;;;;;;;;;;;;22.17;46.85;101662.69;7287127;19;151916;-59
2022/06/20 07:31:52;;;;;;;;;;;;;;;22.14;46.99;101668.06;7286054;19;152938;-56
2022/06/20 07:34:25;;;;;;;;;;;;;;;22.17;46.99;101670.28;7286267;19;154365;-56
2022/06/20 07:36:55;;;;;;;;;;;;;;;22.18;47.28;101674.78;7288230;19;152316;-58
2022/06/20 07:39:36;;;;;;;;;;;;;;;22.21;47.00;101677.00;7283740;19;153249;-57
2022/06/20 07:42:12;;;;;;;;;;;;;;;22.19;46.78;101676.47;7284842;19;153442;-59
2022/06/20 07:44:44;;;;;;;;;;;;;;;22.18;46.85;101681.25;7287321;19;153794;-56
2022/06/20 07:47:16;;;;;;;;;;;;;;;22.14;46.93;101679.34;7287777;19;152674;-58
2022/06/20 07:49:47;;;;;;;;;;;;;;;22.17;46.80;101682.38;7292144;19;153922;-56
2022/06/20 07:52:19;;;;;;;;;;;;;;;22.09;46.92;101682.22;7286032;19;153185;-59
2022/06/20 07:54:48;;;;;;;;;;;;;;;22.10;46.62;101681.94;7285231;19;153231;-59
2022/06/20 07:57:20;;;;;;;;;;;;;;;22.11;46.52;101689.25;7288123;19;151613;-58
2022/06/20 07:59:48;;;;;;;;;;;;;;;22.14;46.38;101690.59;7284991;19;153303;-58
2022/06/20 08:02:23;;;;;;;;;;;;;;;22.13;46.53;101691.72;7285531;19;153164;-58
2022/06/20 08:04:55;;;;;;;;;;;;;;;22.10;46.87;101686.72;7287399;19;152425;-54
2022/06/20 08:07:24;;;;;;;;;;;;;;;22.13;46.70;101689.75;7287046;19;153276;-59
2022/06/20 08:09:56;;;;;;;;;;;;;;;22.06;46.70;101694.09;7284306;19;154192;-57
2022/06/20 08:12:48;;;;;;;;;;;;;;;22.07;46.46;101690.97;7292057;19;152077;-56
2022/06/20 08:15:17;;;;;;;;;;;;;;;22.11;46.36;101694.03;7285638;19;154196;-59
2022/06/20 08:17:44;;;;;;;;;;;;;;;22.05;46.35;101692.41;7287596;19;151948;-56
2022/06/20 08:20:11;;;;;;;;;;;;;;;22.00;46.58;101686.84;7286709;19;153495;-57
2022/06/20 08:22:47;;;;;;;;;;;;;;;22.06;46.36;101691.28;7285531;19;153288;-58
2022/06/20 08:25:14;;;;;;;;;;;;;;;22.06;46.28;101675.22;7287633;19;151536;-56
2022/06/20 08:27:43;;;;;;;;;;;;;;;22.02;46.48;101687.38;7285159;19;153332;-58
2022/06/20 08:30:16;;;;;;;;;;;;;;;22.00;46.37;101682.06;7284413;19;154054;-58
2022/06/20 08:33:02;;;;;;;;;;;;;;;22.00;46.55;101681.22;7292439;19;153687;-58
2022/06/20 08:35:37;;;;;;;;;;;;;;;22.04;45.78;101668.22;7285246;19;153959;-57
2022/06/20 08:38:12;;;;;;;;;;;;;;;22.11;45.49;101679.94;7286233;19;152002;-56
2022/06/20 08:40:42;;;;;;;;;;;;;;;22.02;46.34;101688.22;7285938;19;153667;-58
2022/06/20 08:43:19;;;;;;;;;;;;;;;22.04;46.24;101673.84;7286512;19;153642;-59
2022/06/20 08:46:04;;;;;;;;;;;;;;;21.98;46.56;101686.31;7285598;19;151993;-58
2022/06/20 08:48:49;;;;;;;;;;;;;;;21.94;46.33;101671.19;7286368;19;153470;-55
2022/06/20 08:51:22;;;;;;;;;;;;;;;22.06;46.02;101675.22;7281086;19;153326;-58
2022/06/20 08:53:51;;;;;;;;;;;;;;;22.11;45.99;101677.13;7285036;19;151894;-56
2022/06/20 08:56:30;;;;;;;;;;;;;;;22.11;45.61;101688.41;7290330;19;152614;-57
2022/06/20 08:58:57;;;;;;;;;;;;;;;22.04;46.04;101694.38;7282534;19;151874;-58
2022/06/20 09:01:26;;;;;;;;;;;;;;;22.04;46.19;101687.91;7281558;19;152551;-57
2022/06/20 09:03:59;;;;;;;;;;;;;;;22.02;46.36;101687.38;7284659;19;154156;-56
2022/06/20 09:06:41;;;;;;;;;;;;;;;22.01;46.24;101696.97;7285526;19;152134;-58
2022/06/20 09:09:18;;;;;;;;;;;;;;;22.06;46.35;101694.09;7281486;19;153604;-59
2022/06/20 09:12:00;;;;;;;;;;;;;;;22.05;46.71;101686.78;7280791;19;153122;-55
2022/06/20 09:14:45;;;;;;;;;;;;;;;22.04;46.59;101699.16;7284989;19;152271;-55
2022/06/20 09:17:21;;;;;;;;;;;;;;;22.05;46.71;101704.50;7283997;19;152445;-58
2022/06/20 09:19:58;;;;;;;;;;;;;;;22.05;47.12;101696.06;7285089;19;153336;-56
2022/06/20 09:23:02;;;;;;;;;;;;;;;22.06;49.19;101705.34;7280895;19;153582;-56
2022/06/20 09:25:28;;;;;;;;;;;;;;;22.06;48.76;101700.56;7277223;19;155991;-56
2022/06/20 09:28:06;;;;;;;;;;;;;;;22.03;48.88;101705.97;7273357;19;152563;-58
2022/06/20 09:30:33;;;;;;;;;;;;;;;22.05;48.11;101701.69;7280903;19;153500;-57
2022/06/20 09:33:18;;;;;;;;;;;;;;;22.06;47.87;101708.16;7279825;19;153867;-55
2022/06/20 09:35:57;;;;;;;;;;;;;;;22.09;47.89;101704.72;7281364;19;152294;-55
2022/06/20 09:38:24;;;;;;;;;;;;;;;22.11;47.33;101699.66;7281123;19;152853;-59
2022/06/20 09:41:01;;;;;;;;;;;;;;;22.13;46.94;101691.72;7277675;19;152384;-57
2022/06/20 09:43:39;;;;;;;;;;;;;;;22.13;47.18;101692.56;7288018;19;152168;-56
2022/06/20 09:46:11;;;;;;;;;;;;;;;22.16;47.17;101703.25;7277546;19;153315;-57
2022/06/20 09:48:39;;;;;;;;;;;;;;;22.18;47.18;101703.75;7277217;19;153339;-58
2022/06/20 09:51:16;;;;;;;;;;;;;;;22.23;46.96;101705.69;7278555;19;154418;-57
2022/06/20 09:53:47;;;;;;;;;;;;;;;22.30;46.30;101694.91;7278248;19;153711;-58
2022/06/20 09:56:22;;;;;;;;;;;;;;;22.27;46.42;101698.31;7240127;19;155434;-57
2022/06/20 09:59:01;;;;;;;;;;;;;;;22.27;46.47;101703.94;7268866;19;153656;-59
2022/06/20 10:01:47;;;;;;;;;;;;;;;22.31;46.48;101709.78;7273820;19;153661;-57
2022/06/20 10:04:26;;;;;;;;;;;;;;;22.30;46.67;101710.94;7277191;19;152571;-57
2022/06/20 10:07:20;;;;;;;;;;;;;;;22.29;46.76;101710.13;7289997;19;155379;-57
2022/06/20 10:10:00;;;;;;;;;;;;;;;22.32;46.44;101701.06;7287514;19;152905;-56
2022/06/20 10:12:33;;;;;;;;;;;;;;;22.33;46.86;101711.19;7284584;19;152532;-57
2022/06/20 10:15:17;;;;;;;;;;;;;;;22.38;46.56;101707.47;7285219;19;154483;-59
2022/06/20 10:17:53;;;;;;;;;;;;;;;22.42;46.38;101714.16;7284662;19;152101;-57
2022/06/20 10:20:23;;;;;;;;;;;;;;;22.45;46.41;101720.00;7286072;19;154471;-57
2022/06/20 10:23:17;;;;;;;;;;;;;;;22.47;46.77;101705.63;7284093;19;153468;-58
2022/06/20 10:25:54;;;;;;;;;;;;;;;22.51;46.38;101709.53;7286832;19;152283;-58
2022/06/20 10:28:30;;;;;;;;;;;;;;;22.54;46.66;101717.34;7285650;19;153781;-58
2022/06/20 10:30:59;;;;;;;;;;;;;;;22.56;46.22;101712.28;7292986;19;153019;-57
2022/06/20 10:33:26;;;;;;;;;;;;;;;22.58;46.31;101722.06;7286922;19;154855;-57
2022/06/20 10:36:02;;;;;;;;;;;;;;;22.61;46.29;101718.69;7286786;19;153364;-58
2022/06/20 10:38:37;;;;;;;;;;;;;;;22.61;46.59;101706.56;7287028;19;154904;-59
2022/06/20 10:41:06;;;;;;;;;;;;;;;22.65;46.36;101718.91;7287752;19;153204;-57
2022/06/20 10:43:52;;;;;;;;;;;;;;;22.67;46.57;101715.78;7286536;19;154229;-56
2022/06/20 10:46:26;;;;;;;;;;;;;;;22.69;46.64;101710.66;7288259;19;151841;-58
2022/06/20 10:49:15;;;;;;;;;;;;;;;22.71;46.50;101714.06;7287663;19;153208;-58
2022/06/20 10:51:47;;;;;;;;;;;;;;;22.94;46.84;101704.69;7292191;19;153253;-55
2022/06/20 10:54:24;;;;;;;;;;;;;;;22.95;47.89;101703.50;7249146;19;152783;-56
2022/06/20 10:56:57;;;;;;;;;;;;;;;22.95;48.59;101709.16;7280572;19;153361;-56
2022/06/20 10:59:46;;;;;;;;;;;;;;;22.96;49.39;101716.47;7275120;19;152465;-59
2022/06/20 11:02:26;;;;;;;;;;;;;;;22.94;48.60;101713.13;7281448;19;152469;-58
2022/06/20 11:05:05;;;;;;;;;;;;;;;22.96;47.95;101719.28;7281646;19;154196;-58
2022/06/20 11:07:41;;;;;;;;;;;;;;;22.97;48.59;101718.16;7279482;19;152148;-59
2022/06/20 11:10:33;;;;;;;;;;;;;;;22.97;48.51;101716.19;7286596;19;153016;-58
2022/06/20 11:13:06;;;;;;;;;;;;;;;22.95;48.00;101711.97;7281714;19;154042;-57
2022/06/20 11:15:38;;;;;;;;;;;;;;;22.97;48.28;101715.34;7289250;19;151717;-56
2022/06/20 11:18:05;;;;;;;;;;;;;;;22.98;47.88;101711.38;7281802;19;153570;-57
2022/06/20 11:20:42;;;;;;;;;;;;;;;22.95;48.25;101712.81;7282964;19;152142;-56
2022/06/20 11:23:16;;;;;;;;;;;;;;;23.02;47.77;101720.91;7283345;19;152598;-56
2022/06/20 11:26:01;;;;;;;;;;;;;;;23.00;48.72;101714.72;7283848;19;153442;-57
2022/06/20 11:28:39;;;;;;;;;;;;;;;23.00;48.70;101715.56;7283778;19;152101;-58
2022/06/20 11:31:12;;;;;;;;;;;;;;;23.01;48.34;101722.03;7281913;19;153827;-55
2022/06/20 11:36:45;;;;;;;;;;;;;;;23.04;48.24;101715.78;7281987;19;154684;-59
2022/06/20 11:39:24;;;;;;;;;;;;;;;23.01;47.88;101710.75;7292495;19;152734;-56
2022/06/20 11:41:53;;;;;;;;;;;;;;;23.02;48.18;101718.06;7286472;19;152051;-55
2022/06/20 11:44:48;;;;;;;;;;;;;;;23.03;48.01;101720.56;7286772;19;154010;-56
2022/06/20 11:47:21;;;;;;;;;;;;;;;23.03;47.95;101706.47;7281402;19;153990;-57
2022/06/20 11:50:07;;;;;;;;;;;;;;;23.03;47.87;101705.66;7287046;19;152279;-58
2022/06/20 11:52:49;;;;;;;;;;;;;;;23.04;47.82;101710.97;7283203;19;153620;-59
2022/06/20 11:55:22;;;;;;;;;;;;;;;23.05;47.46;101707.00;7284556;19;153969;-58
2022/06/20 11:57:57;;;;;;;;;;;;;;;23.05;47.85;101703.34;7285528;19;152017;-56
2022/06/20 12:00:33;;;;;;;;;;;;;;;23.04;47.95;101701.69;7282315;19;151900;-57
2022/06/20 12:03:08;;;;;;;;;;;;;;;23.05;47.82;101703.34;7289868;19;153965;-60
2022/06/20 12:05:40;;;;;;;;;;;;;;;23.09;45.46;101709.22;7286593;19;152523;-54
2022/06/20 12:08:10;;;;;;;;;;;;;;;23.16;43.38;101701.22;7282438;19;153752;-60
2022/06/20 12:10:40;;;;;;;;;;;;;;;23.15;41.53;101696.72;7282617;19;151916;-58
2022/06/20 12:13:06;;;;;;;;;;;;;;;23.13;41.09;101702.66;7279281;19;152535;-57
2022/06/20 12:15:39;;;;;;;;;;;;;;;23.12;42.02;101700.16;7283759;19;153512;-57
2022/06/20 12:18:25;;;;;;;;;;;;;;;23.14;41.29;101695.88;7284901;19;152240;-60
2022/06/20 12:23:50;;;;;;;;;;;;;;;23.09;40.48;101683.84;7283105;19;153465;-58
2022/06/20 12:26:19;;;;;;;;;;;;;;;23.03;41.44;101683.13;7292181;19;151686;-56
2022/06/20 12:28:48;;;;;;;;;;;;;;;23.09;40.47;101690.31;7280780;19;153724;-56
2022/06/20 12:31:22;;;;;;;;;;;;;;;23.06;40.83;101690.94;7285645;19;153858;-59
2022/06/20 12:33:54;;;;;;;;;;;;;;;23.08;40.71;101677.38;7285087;19;152776;-60
2022/06/20 12:36:24;;;;;;;;;;;;;;;23.10;40.39;101679.88;7283448;19;154449;-57
2022/06/20 12:38:53;;;;;;;;;;;;;;;23.04;41.05;101673.50;7284596;19;151962;-60
2022/06/20 12:41:22;;;;;;;;;;;;;;;23.02;41.34;101676.63;7284233;19;152942;-59
2022/06/20 12:44:09;;;;;;;;;;;;;;;23.02;40.70;101670.16;7284530;19;155701;-58
2022/06/20 12:46:51;;;;;;;;;;;;;;;23.05;40.24;101669.53;7290216;19;152181;-57
2022/06/20 12:49:21;;;;;;;;;;;;;;;23.00;41.06;101661.16;7283447;19;153118;-56
2022/06/20 12:51:54;;;;;;;;;;;;;;;22.98;40.71;101664.31;7281840;19;151936;-58
2022/06/20 12:54:26;;;;;;;;;;;;;;;22.99;41.55;101665.13;7282147;19;153200;-57
2022/06/20 12:56:57;;;;;;;;;;;;;;;23.02;40.75;101665.38;7282542;19;154967;-59
2022/06/20 12:59:42;;;;;;;;;;;;;;;23.04;39.76;101667.84;7281897;19;155258;-56
2022/06/20 13:02:24;;;;;;;;;;;;;;;23.03;39.85;101669.03;7284583;19;152717;-59
2022/06/20 13:05:14;;;;;;;;;;;;;;;23.01;40.50;101671.28;7283533;19;153889;-57
2022/06/20 13:07:53;;;;;;;;;;;;;;;23.02;39.63;101668.19;7233736;19;154372;-60
2022/06/20 13:10:26;;;;;;;;;;;;;;;23.00;40.22;101670.47;7285043;19;152847;-56
2022/06/20 13:13:03;;;;;;;;;;;;;;;22.99;41.45;101667.94;7276358;19;152116;-60
2022/06/20 13:15:33;;;;;;;;;;;;;;;22.98;42.12;101666.28;7278139;19;153159;-58